• Join FlightAware (Why Join?)
  • Login
  • US Flag 
04:57PM EDT


 

Airport Tracker/Info


-or-


 

Live Flight TrackerFlight Track Log ✈ SWA2278 ✈ 08-Apr-2013 ✈ KBNA - KBWI

Flight Track Log - Related Links

Times and Time Zones

All times are in EDT time to prevent confusion due to time zone crossing. See the SWA2278 flight status page for this flight to view local times or setup timezone preferences in your user account.

Time Position Orientation Groundspeed Altitude Reporting Facility
EDT Latitude Longitude Course Direction KTS MPH feet Rate Location/Type
02:01PM 36.0667 -86.6667 171° South 202 232 2,800  Level Nashville TRACON
02:02PM 36.0500 -86.6000 107° East 270 311 4,000 660 Climbing Nashville TRACON
02:03PM 36.0833 -86.5333 58° Northeast 289 333 4,000 1,320 Level Nashville TRACON
02:04PM 36.1000 -86.4333 78° East 291 335 6,400 2,460 Climbing Nashville TRACON
02:05PM 36.1458 -86.2806 70° East 337 388 10,700 2,520 Climbing Memphis Center
02:06PM 36.1772 -86.1633 72° East 343 395 13,000 2,400 Climbing Memphis Center
02:07PM 36.2167 -86.0378 69° East 368 423 15,500 2,400 Climbing Memphis Center
02:08PM 36.2728 -85.9139 61° Northeast 394 453 17,800 2,160 Climbing Memphis Center
02:10PM 36.3867 -85.6628 61° Northeast 421 484 22,100 2,040 Climbing Indianapolis Center
02:11PM 36.4508 -85.5281 59° Northeast 445 512 24,200 1,860 Climbing Indianapolis Center
02:13PM 36.5144 -85.3939 59° Northeast 447 514 26,000 1,620 Climbing Indianapolis Center
02:14PM 36.5806 -85.2564 59° Northeast 458 527 27,600 1,560 Climbing Indianapolis Center
02:15PM 36.6644 -85.0883 58° Northeast 472 543 29,200 1,500 Climbing Indianapolis Center
02:16PM 36.7350 -84.9475 58° Northeast 476 548 30,700 1,440 Climbing Indianapolis Center
02:17PM 36.8033 -84.8069 59° Northeast 474 545 32,200 1,200 Climbing Indianapolis Center
02:18PM 36.8561 -84.6522 67° East 479 551 33,300 1,320 Climbing Indianapolis Center
02:19PM 36.8953 -84.5050 72° East 480 552 35,000 780 Climbing Indianapolis Center
02:20PM 36.9467 -84.3225 71° East 477 549 35,000  Level Indianapolis Center
02:21PM 36.9914 -84.1622 71° East 485 558 35,000  Level Indianapolis Center
02:22PM 37.0353 -84.0025 71° East 485 558 35,000  Level Indianapolis Center
02:23PM 37.0794 -83.8425 71° East 486 559 35,000  Level Indianapolis Center
02:24PM 37.1239 -83.6822 71° East 485 558 35,000  Level Indianapolis Center
02:25PM 37.1661 -83.5225 72° East 482 555 35,000  Level Indianapolis Center
02:26PM 37.2089 -83.3619 71° East 480 552 35,000  Level Indianapolis Center
02:27PM 37.2525 -83.2008 71° East 484 557 35,000  Level Indianapolis Center
02:28PM 37.3008 -83.0150 72° East 477 549 35,000  Level Indianapolis Center
02:29PM 37.3428 -82.8556 72° East 475 547 35,000  Level Indianapolis Center
02:30PM 37.3847 -82.6958 72° East 477 549 35,000  Level Indianapolis Center
02:31PM 37.4267 -82.5375 72° East 476 548 35,000  Level Indianapolis Center
02:32PM 37.4678 -82.3775 72° East 477 549 35,000  Level Indianapolis Center
02:33PM 37.5092 -82.2147 72° East 485 558 35,000  Level Indianapolis Center
02:34PM 37.5514 -82.0531 72° East 485 558 35,000  Level Indianapolis Center
02:35PM 37.5922 -81.8906 72° East 485 558 35,000  Level Indianapolis Center
02:36PM 37.6392 -81.6983 73° East 489 563 35,000  Level Indianapolis Center
02:37PM 37.6792 -81.5353 73° East 487 560 35,000  Level Indianapolis Center
02:38PM 37.7206 -81.3725 72° East 484 557 35,000  Level Indianapolis Center
02:39PM 37.7597 -81.2150 72° East 484 557 35,000  Level Indianapolis Center
02:40PM 37.7878 -81.0578 77° East 464 534 35,000  Level Washington Center
02:41PM 37.8058 -80.8933 82° East 470 541 35,000  Level Washington Center
02:42PM 37.8256 -80.7264 81° East 475 547 35,000  Level Washington Center
02:43PM 37.8586 -80.5842 74° East 480 552 35,000  Level Washington Center
02:44PM 37.9108 -80.4350 66° East 467 537 35,000  Level Washington Center
02:45PM 37.9606 -80.2853 67° East 461 531 35,000  Level Washington Center
02:46PM 38.0100 -80.1356 67° East 461 531 35,000  Level Washington Center
02:47PM 38.0664 -79.9675 67° East 466 536 35,000  Level Washington Center
02:48PM 38.1156 -79.8172 67° East 466 536 35,000  Level Washington Center
02:49PM 38.1644 -79.6669 67° East 466 536 35,000  Level Washington Center
02:50PM 38.2153 -79.5189 66° East 466 536 35,000  Level Washington Center
02:51PM 38.2642 -79.3656 68° East 466 536 35,000  Level Washington Center
02:52PM 38.2997 -79.2244 72° East 466 536 35,000 -2,640 Level Washington Center
02:53PM 38.3419 -79.0650 71° East 466 536 29,800 -3,900 Descending Washington Center
02:54PM 38.3839 -78.9081 71° East 466 536 27,300 -1,440 Descending Washington Center
02:55PM 38.4178 -78.7372 76° East 461 531 27,000 -180 Descending Washington Center
02:56PM 38.4569 -78.5878 71° East 450 518 27,000  Level Washington Center
02:57PM 38.4983 -78.4303 71° East 450 518 27,000 -900 Level Washington Center
02:58PM 38.5375 -78.2750 72° East 456 525 25,200 -2,100 Descending Washington Center
02:59PM 38.5761 -78.1225 72° East 451 519 22,800 -2,280 Descending Washington Center
03:00PM 38.6125 -77.9803 72° East 441 507 20,700 -1,920 Descending Washington Center
03:01PM 38.6422 -77.8350 75° East 427 491 19,000 -900 Descending Washington Center
03:02PM 38.6511 -77.6944 85° East 411 473 19,000 -300 Level Washington Center
03:03PM 38.6667 -77.5500 82° East 409 471 18,500 -1,380 Descending Potomac TRACON
03:04PM 38.6667 -77.4167 90° East 408 470 16,300 -1,380 Descending Potomac TRACON
03:05PM 38.6833 -77.2667 82° East 392 451 15,800 -1,320 Descending Potomac TRACON
03:06PM 38.6833 -77.1333 90° East 387 445 13,800 -2,160 Descending Potomac TRACON
03:07PM 38.7000 -76.9833 82° East 370 426 11,500 -1,740 Descending Potomac TRACON
03:08PM 38.7000 -76.8667 90° East 353 406 10,200 -1,260 Descending Potomac TRACON
03:09PM 38.7000 -76.7500 90° East 315 362 9,000 -1,140 Descending Potomac TRACON
03:10PM 38.7500 -76.6500 57° Northeast 319 367 8,000 -1,320 Descending Potomac TRACON
03:11PM 38.7833 -76.5667 63° Northeast 313 360 6,600 -1,380 Descending Potomac TRACON
03:12PM 38.8667 -76.5500 North 291 335 5,300 -1,140 Descending Potomac TRACON
03:13PM 38.9333 -76.5833 339° North 285 328 4,400 -720 Descending Potomac TRACON
03:14PM 38.9833 -76.6333 322° Northwest 267 307 4,000 -240 Descending Potomac TRACON
03:15PM 39.0167 -76.7167 297° West 270 311 4,000 -180 Level Potomac TRACON
03:16PM 39.0667 -76.7833 314° West 243 280 3,700 -540 Descending Potomac TRACON
03:17PM 39.1000 -76.8500 303° West 241 277 3,000 -600 Descending Potomac TRACON
03:18PM 39.1667 -76.8667 349° North 239 275 2,500 -420 Descending Potomac TRACON
03:19PM 39.1833 -76.8167 67° East 180 207 2,200 -600 Descending Potomac TRACON
03:20PM 39.1833 -76.7667 90° East 152 175 1,300 -900 Descending Potomac TRACON
03:21PM 39.1833 -76.7000 90° East 143 165 500 -840 Descending Potomac TRACON
03:23PM 39.1754 -76.6683 21° North  Level Estimated
03:30PM 39.1754 -76.6683 North  Level Estimated
03:31PM 39.1754 -76.6683 North  Level Estimated